createdAt,value
2023-02-23T00:02:20.231Z,63.33
2023-02-23T00:04:48.581Z,60.47
2023-02-23T00:07:19.560Z,64.60
2023-02-23T00:09:53.650Z,61.83
2023-02-23T00:12:24.198Z,64.80
2023-02-23T00:14:52.932Z,64.40
2023-02-23T00:17:24.500Z,63.07
2023-02-23T00:19:53.069Z,65.57
2023-02-23T00:22:21.828Z,60.97
2023-02-23T00:24:52.136Z,65.60
2023-02-23T00:27:21.552Z,63.00
2023-02-23T00:29:51.053Z,64.00
2023-02-23T00:32:20.507Z,65.23
2023-02-23T00:34:51.046Z,63.77
2023-02-23T00:37:20.404Z,60.87
2023-02-23T00:39:49.500Z,64.43
2023-02-23T00:42:19.519Z,63.77
2023-02-23T00:44:49.084Z,64.87
2023-02-23T00:47:17.407Z,62.37
2023-02-23T00:49:46.210Z,58.40
2023-02-23T00:52:15.665Z,60.10
2023-02-23T00:54:44.512Z,58.93
2023-02-23T00:57:13.147Z,54.43
2023-02-23T00:59:43.338Z,60.70
2023-02-23T01:02:11.848Z,58.77
2023-02-23T01:04:40.271Z,60.80
2023-02-23T01:07:08.826Z,60.73
2023-02-23T01:09:38.505Z,62.57
2023-02-23T01:12:07.671Z,64.00
2023-02-23T01:14:37.609Z,60.43
2023-02-23T01:17:09.161Z,66.10
2023-02-23T01:19:40.671Z,67.33
2023-02-23T01:22:13.967Z,66.30
2023-02-23T01:24:42.904Z,69.23
2023-02-23T01:27:12.518Z,63.97
2023-02-23T01:29:40.999Z,69.43
2023-02-23T01:32:11.074Z,69.03
2023-02-23T01:34:39.421Z,66.50
2023-02-23T01:37:08.852Z,64.70
2023-02-23T01:39:37.276Z,70.50
2023-02-23T01:42:05.702Z,74.47
2023-02-23T01:44:52.756Z,71.00
2023-02-23T01:47:22.530Z,71.60
2023-02-23T01:49:51.224Z,75.67
2023-02-23T01:52:21.412Z,68.07
2023-02-23T01:54:51.976Z,69.33
2023-02-23T01:57:24.802Z,68.40
2023-02-23T01:59:53.766Z,70.50
2023-02-23T02:02:27.689Z,72.43
2023-02-23T02:04:56.589Z,74.90
2023-02-23T02:07:35.550Z,65.93
2023-02-23T02:10:17.767Z,78.93
2023-02-23T02:12:46.859Z,77.37
2023-02-23T02:15:18.023Z,77.93
2023-02-23T02:17:53.460Z,76.07
2023-02-23T02:20:33.309Z,75.43
2023-02-23T02:23:16.442Z,77.97
2023-02-23T02:25:58.667Z,71.90
2023-02-23T02:28:32.814Z,70.50
2023-02-23T02:31:19.960Z,73.97
2023-02-23T02:33:58.552Z,77.60
2023-02-23T02:36:41.849Z,77.23
2023-02-23T02:39:23.889Z,77.53
2023-02-23T02:41:57.687Z,76.43
2023-02-23T02:44:31.928Z,76.37
2023-02-23T02:47:03.920Z,77.93
2023-02-23T02:49:33.873Z,80.33
2023-02-23T02:52:05.537Z,78.27
2023-02-23T02:54:46.133Z,78.30
2023-02-23T02:57:16.267Z,75.83
2023-02-23T03:00:02.901Z,77.23
2023-02-23T03:02:49.224Z,78.93
2023-02-23T03:05:36.201Z,81.93
2023-02-23T03:08:27.413Z,82.13
2023-02-23T03:11:16.225Z,86.40
2023-02-23T03:14:08.855Z,80.40
2023-02-23T03:16:58.681Z,80.40
2023-02-23T03:19:46.594Z,81.73
2023-02-23T03:22:36.178Z,85.43
2023-02-23T03:25:25.332Z,91.83
2023-02-23T03:28:12.983Z,91.70
2023-02-23T03:31:08.051Z,88.00
2023-02-23T03:33:59.025Z,91.50
2023-02-23T03:36:46.228Z,88.40
2023-02-23T03:39:37.628Z,93.30
2023-02-23T03:42:25.625Z,92.27
2023-02-23T03:45:12.080Z,90.90
2023-02-23T03:48:01.308Z,88.17
2023-02-23T03:50:50.314Z,86.27
2023-02-23T03:53:38.101Z,79.47
2023-02-23T03:56:25.276Z,81.27
2023-02-23T03:59:13.092Z,80.30
2023-02-23T04:01:59.400Z,87.03
2023-02-23T04:04:47.565Z,92.00
2023-02-23T04:07:34.686Z,87.87
2023-02-23T04:10:22.722Z,83.20
2023-02-23T04:13:12.578Z,84.87
2023-02-23T04:15:41.544Z,78.60
2023-02-23T04:18:14.303Z,84.63
2023-02-23T04:20:44.159Z,84.67
2023-02-23T04:23:12.540Z,81.10
2023-02-23T04:25:41.284Z,83.50
2023-02-23T04:28:12.432Z,83.00
2023-02-23T04:30:41.024Z,86.00
2023-02-23T04:33:09.582Z,84.73
2023-02-23T04:35:38.052Z,86.30
2023-02-23T04:38:07.970Z,83.63
2023-02-23T04:40:36.857Z,88.63
2023-02-23T04:43:05.116Z,84.93
2023-02-23T04:45:33.689Z,83.93
2023-02-23T04:48:01.972Z,86.17
2023-02-23T04:50:32.478Z,89.37
2023-02-23T04:53:00.884Z,88.77
2023-02-23T04:55:30.536Z,91.83
2023-02-23T04:58:00.330Z,90.97
2023-02-23T05:00:29.374Z,89.03
2023-02-23T05:02:57.687Z,89.37
2023-02-23T05:05:25.929Z,86.63
2023-02-23T05:07:54.971Z,83.07
2023-02-23T05:10:23.313Z,94.53
2023-02-23T05:12:52.963Z,87.53
2023-02-23T05:15:21.238Z,93.13
2023-02-23T05:17:49.488Z,88.03
2023-02-23T05:20:17.740Z,90.13
2023-02-23T05:22:45.955Z,84.63
2023-02-23T05:25:14.207Z,87.37
2023-02-23T05:27:42.450Z,86.57
2023-02-23T05:30:13.558Z,94.80
2023-02-23T05:32:41.829Z,89.63
2023-02-23T05:35:10.554Z,89.20
2023-02-23T05:37:38.838Z,85.33
2023-02-23T05:40:07.781Z,85.07
2023-02-23T05:42:36.106Z,89.83
2023-02-23T05:45:04.986Z,86.80
2023-02-23T05:47:38.577Z,92.97
2023-02-23T05:50:07.390Z,84.83
2023-02-23T05:52:38.980Z,84.67
2023-02-23T05:55:07.812Z,93.60
2023-02-23T05:57:36.072Z,87.83
2023-02-23T06:00:04.657Z,90.07
2023-02-23T06:02:33.009Z,97.67
2023-02-23T06:05:02.710Z,90.00
2023-02-23T06:07:31.047Z,85.27
2023-02-23T06:09:59.636Z,93.53
2023-02-23T06:12:28.025Z,91.63
2023-02-23T06:14:57.116Z,94.73
2023-02-23T06:17:25.486Z,88.57
2023-02-23T06:19:54.161Z,80.90
2023-02-23T06:22:23.962Z,83.07
2023-02-23T06:24:52.224Z,81.47
2023-02-23T06:27:20.465Z,86.40
2023-02-23T06:29:48.826Z,95.93
2023-02-23T06:32:17.696Z,81.73
2023-02-23T06:34:46.123Z,90.53
2023-02-23T06:37:14.549Z,98.00
2023-02-23T06:39:44.289Z,87.73
2023-02-23T06:42:12.925Z,84.70
2023-02-23T06:44:41.200Z,80.23
2023-02-23T06:47:10.977Z,84.90
2023-02-23T06:49:40.459Z,91.50
2023-02-23T06:52:08.789Z,78.87
2023-02-23T06:54:39.925Z,81.33
2023-02-23T06:57:09.590Z,78.20
2023-02-23T06:59:37.901Z,82.60
2023-02-23T07:02:06.690Z,82.70
2023-02-23T07:04:35.210Z,79.17
2023-02-23T07:07:03.684Z,78.23
2023-02-23T07:09:32.238Z,77.13
2023-02-23T07:12:01.281Z,79.23
2023-02-23T07:14:30.953Z,79.17
2023-02-23T07:16:59.247Z,81.70
2023-02-23T07:19:27.697Z,84.17
2023-02-23T07:21:56.704Z,78.90
2023-02-23T07:24:25.147Z,80.47
2023-02-23T07:26:53.400Z,77.50
2023-02-23T07:29:23.987Z,72.10
2023-02-23T07:31:53.650Z,83.03
2023-02-23T07:34:22.210Z,75.33
2023-02-23T07:36:50.526Z,82.13
2023-02-23T07:39:18.814Z,77.77
2023-02-23T07:41:47.178Z,77.73
2023-02-23T07:44:15.480Z,78.57
2023-02-23T07:46:46.358Z,78.83
2023-02-23T07:49:15.983Z,81.13
2023-02-23T07:51:44.290Z,79.27
2023-02-23T07:54:12.541Z,77.03
2023-02-23T07:56:40.797Z,75.20
2023-02-23T07:59:09.171Z,77.53
2023-02-23T08:01:37.493Z,74.93
2023-02-23T08:04:05.818Z,77.73
2023-02-23T08:06:35.562Z,74.97
2023-02-23T08:09:04.512Z,75.47
2023-02-23T08:11:32.934Z,80.67
2023-02-23T08:14:01.163Z,77.10
2023-02-23T08:16:29.492Z,81.20
2023-02-23T08:18:59.289Z,79.27
2023-02-23T08:21:27.640Z,74.40
2023-02-23T08:23:57.430Z,74.07
2023-02-23T08:26:26.053Z,69.60
2023-02-23T08:28:54.387Z,80.43
2023-02-23T08:31:24.417Z,78.03
2023-02-23T08:33:53.304Z,75.40
2023-02-23T08:36:21.817Z,76.83
2023-02-23T08:38:50.131Z,74.20
2023-02-23T08:41:20.129Z,72.93
2023-02-23T08:43:48.786Z,82.13
2023-02-23T08:46:20.162Z,75.67
2023-02-23T08:48:48.680Z,73.17
2023-02-23T08:51:17.077Z,73.57
2023-02-23T08:53:45.425Z,78.40
2023-02-23T08:56:15.342Z,78.57
2023-02-23T08:58:44.996Z,77.93
2023-02-23T09:01:18.482Z,77.37
2023-02-23T09:03:47.302Z,67.80
2023-02-23T09:06:16.774Z,68.27
2023-02-23T09:08:45.238Z,70.57
2023-02-23T09:11:13.574Z,79.87
2023-02-23T09:13:41.965Z,75.87
2023-02-23T09:16:11.696Z,66.00
2023-02-23T09:18:42.463Z,76.00
2023-02-23T09:21:18.826Z,69.60
2023-02-23T09:23:48.304Z,65.10
2023-02-23T09:26:17.796Z,66.43
2023-02-23T09:28:46.373Z,60.83
2023-02-23T09:31:17.140Z,66.17
2023-02-23T09:33:45.625Z,62.87
2023-02-23T09:36:16.227Z,55.97
2023-02-23T09:38:45.108Z,55.90
2023-02-23T09:41:30.092Z,53.03
2023-02-23T09:44:02.638Z,50.10
2023-02-23T09:46:36.138Z,49.73
2023-02-23T09:49:05.615Z,48.97
2023-02-23T09:51:38.473Z,54.37
2023-02-23T09:54:08.615Z,52.27
2023-02-23T09:56:38.495Z,51.80
2023-02-23T09:59:09.174Z,54.47
2023-02-23T10:01:46.315Z,50.57
2023-02-23T10:04:18.084Z,48.93
2023-02-23T10:06:50.641Z,49.57
2023-02-23T10:09:23.925Z,46.93
2023-02-23T10:11:57.158Z,50.77
2023-02-23T10:14:32.016Z,48.60
2023-02-23T10:17:08.738Z,44.90
2023-02-23T10:19:42.972Z,44.30
2023-02-23T10:22:12.341Z,43.00
2023-02-23T10:24:42.043Z,39.70
2023-02-23T10:27:11.919Z,43.83
2023-02-23T10:29:43.089Z,47.23
2023-02-23T10:32:17.328Z,39.53
2023-02-23T10:34:48.311Z,40.20
2023-02-23T10:37:17.874Z,41.43
2023-02-23T10:39:50.104Z,40.40
2023-02-23T10:42:19.560Z,38.77
2023-02-23T10:44:48.831Z,34.80
2023-02-23T10:47:19.911Z,32.47
2023-02-23T10:49:48.979Z,37.27
2023-02-23T10:52:19.042Z,35.33
2023-02-23T10:54:48.210Z,30.87
2023-02-23T10:57:24.997Z,29.97
2023-02-23T11:00:00.889Z,34.27
2023-02-23T11:02:31.913Z,30.20
2023-02-23T11:05:01.052Z,29.80
2023-02-23T11:07:31.114Z,27.50
2023-02-23T11:09:59.423Z,30.60
2023-02-23T11:12:29.644Z,27.60
2023-02-23T11:14:59.298Z,25.00
2023-02-23T11:17:34.086Z,24.97
2023-02-23T11:20:03.702Z,25.10
2023-02-23T11:22:33.326Z,26.20
2023-02-23T11:25:03.934Z,24.47
2023-02-23T11:27:32.167Z,27.17
2023-02-23T11:30:01.480Z,24.90
2023-02-23T11:32:31.329Z,25.53
2023-02-23T11:35:15.171Z,28.90
2023-02-23T11:37:45.220Z,25.63
2023-02-23T11:40:21.295Z,25.73
2023-02-23T11:42:54.507Z,26.63
2023-02-23T11:45:24.235Z,26.93
2023-02-23T11:47:53.726Z,28.20
2023-02-23T11:50:23.803Z,23.37
2023-02-23T11:53:00.033Z,23.27
2023-02-23T11:55:29.862Z,23.63
2023-02-23T11:58:09.412Z,21.00
2023-02-23T12:00:37.797Z,22.37
2023-02-23T12:03:06.785Z,23.60
2023-02-23T12:05:35.763Z,21.07
2023-02-23T12:08:07.482Z,22.53
2023-02-23T12:10:39.598Z,22.47
2023-02-23T12:13:14.297Z,22.87
2023-02-23T12:15:46.048Z,20.97
2023-02-23T12:18:20.130Z,20.63
2023-02-23T12:20:50.675Z,21.03
2023-02-23T12:23:22.016Z,24.80
2023-02-23T12:25:54.200Z,23.07
2023-02-23T12:28:27.812Z,20.87
2023-02-23T12:30:58.555Z,23.70
2023-02-23T12:33:30.754Z,22.80
2023-02-23T12:36:01.060Z,23.40
2023-02-23T12:38:33.228Z,23.07
2023-02-23T12:41:05.358Z,23.23
2023-02-23T12:43:37.873Z,22.90
2023-02-23T12:46:09.569Z,26.10
2023-02-23T12:48:40.618Z,24.53
2023-02-23T12:51:14.516Z,25.03
2023-02-23T12:53:45.589Z,27.47
2023-02-23T12:56:19.673Z,25.87
2023-02-23T12:58:52.846Z,27.00
2023-02-23T13:01:26.994Z,24.77
2023-02-23T13:04:14.604Z,26.03
2023-02-23T13:06:52.348Z,30.43
2023-02-23T13:09:29.665Z,26.43
2023-02-23T13:12:10.212Z,27.87
2023-02-23T13:14:43.222Z,27.10
2023-02-23T13:17:18.677Z,29.97
2023-02-23T13:19:50.316Z,33.20
2023-02-23T13:22:26.026Z,31.47
2023-02-23T13:24:57.480Z,30.77
2023-02-23T13:27:27.932Z,29.67
2023-02-23T13:29:59.069Z,29.00
2023-02-23T13:32:32.878Z,32.77
2023-02-23T13:35:02.557Z,29.60
2023-02-23T13:37:35.820Z,28.07
2023-02-23T13:40:13.035Z,35.90
2023-02-23T13:42:44.593Z,29.63
2023-02-23T13:45:25.592Z,31.07
2023-02-23T13:47:56.713Z,33.07
2023-02-23T13:50:29.193Z,31.13
2023-02-23T13:53:04.946Z,29.67
2023-02-23T13:55:51.271Z,33.47
2023-02-23T13:58:20.779Z,29.33
2023-02-23T14:00:55.052Z,31.77
2023-02-23T14:03:25.477Z,32.40
2023-02-23T14:05:57.625Z,31.57
2023-02-23T14:08:30.602Z,32.47
2023-02-23T14:11:00.378Z,29.83
2023-02-23T14:13:30.466Z,29.53
2023-02-23T14:16:12.455Z,31.43
2023-02-23T14:18:54.944Z,31.60
2023-02-23T14:21:27.797Z,31.50
2023-02-23T14:24:03.988Z,32.00
2023-02-23T14:26:47.176Z,34.70
2023-02-23T14:29:26.950Z,32.40
2023-02-23T14:31:59.985Z,29.30
2023-02-23T14:34:43.320Z,30.93
2023-02-23T14:37:17.969Z,32.47
2023-02-23T14:39:46.550Z,29.63
2023-02-23T14:42:22.255Z,32.13
2023-02-23T14:44:51.514Z,32.00
2023-02-23T14:47:21.146Z,29.93
2023-02-23T14:49:50.862Z,29.77
2023-02-23T14:52:21.677Z,29.80
2023-02-23T14:54:50.081Z,29.80
2023-02-23T14:57:21.310Z,28.33
2023-02-23T14:59:54.175Z,25.23
2023-02-23T15:02:24.374Z,27.43
2023-02-23T15:04:53.561Z,27.37
2023-02-23T15:07:25.243Z,26.80
2023-02-23T15:09:54.931Z,27.57
2023-02-23T15:12:27.036Z,27.33
2023-02-23T15:14:57.660Z,28.37
2023-02-23T15:17:26.948Z,24.77
2023-02-23T15:20:09.560Z,27.43
2023-02-23T15:22:43.369Z,26.40
2023-02-23T15:25:16.038Z,23.87
2023-02-23T15:27:46.782Z,21.83
2023-02-23T15:30:23.590Z,22.63
2023-02-23T15:33:00.909Z,26.30
2023-02-23T15:35:29.813Z,24.60
2023-02-23T15:38:11.389Z,24.30
2023-02-23T15:40:46.994Z,24.97
2023-02-23T15:43:16.865Z,26.57
2023-02-23T15:45:48.765Z,25.60
2023-02-23T15:48:18.493Z,23.03
2023-02-23T15:50:50.160Z,23.83
2023-02-23T15:53:24.082Z,22.40
2023-02-23T15:55:52.437Z,24.87
2023-02-23T15:58:23.216Z,23.97
2023-02-23T16:00:53.259Z,25.27
2023-02-23T16:03:25.831Z,26.37
2023-02-23T16:05:58.190Z,24.20
2023-02-23T16:08:27.382Z,24.10
2023-02-23T16:10:57.994Z,24.43
2023-02-23T16:13:27.657Z,23.40
2023-02-23T16:15:56.781Z,27.00
2023-02-23T16:18:30.775Z,25.57
2023-02-23T16:21:03.019Z,29.37
2023-02-23T16:23:34.284Z,25.93
2023-02-23T16:26:06.661Z,26.30
2023-02-23T16:28:37.720Z,27.77
2023-02-23T16:31:07.267Z,29.37
2023-02-23T16:33:43.280Z,29.23
2023-02-23T16:36:20.395Z,26.80
2023-02-23T16:38:58.157Z,28.07
2023-02-23T16:41:27.253Z,33.33
2023-02-23T16:43:57.522Z,32.10
2023-02-23T16:46:27.272Z,36.90
2023-02-23T16:48:55.649Z,28.27
2023-02-23T16:51:24.684Z,29.03
2023-02-23T16:53:53.676Z,36.63
2023-02-23T16:56:23.400Z,29.73
2023-02-23T16:58:54.331Z,30.40
2023-02-23T17:01:24.714Z,30.97
2023-02-23T17:03:54.548Z,35.67
2023-02-23T17:06:23.505Z,30.70
2023-02-23T17:08:58.225Z,26.80
2023-02-23T17:11:27.030Z,30.03
2023-02-23T17:13:55.270Z,24.80
2023-02-23T17:16:25.269Z,30.20
2023-02-23T17:18:53.700Z,31.87
2023-02-23T17:21:25.072Z,30.93
2023-02-23T17:23:57.234Z,32.53
2023-02-23T17:26:27.015Z,31.23
2023-02-23T17:28:55.227Z,27.70
2023-02-23T17:31:27.209Z,32.27
2023-02-23T17:33:56.256Z,30.77
2023-02-23T17:36:27.422Z,31.43
2023-02-23T17:38:58.645Z,38.53
2023-02-23T17:41:27.397Z,45.87
2023-02-23T17:43:55.866Z,63.10
2023-02-23T17:46:25.532Z,39.73
2023-02-23T17:48:56.188Z,41.83
2023-02-23T17:51:24.532Z,39.03
2023-02-23T17:53:52.828Z,48.67
2023-02-23T17:56:21.177Z,44.73
2023-02-23T17:58:49.995Z,46.67
2023-02-23T18:01:19.831Z,54.20
2023-02-23T18:03:50.891Z,38.27
2023-02-23T18:06:19.741Z,41.13
2023-02-23T18:08:47.995Z,40.97
2023-02-23T18:11:18.639Z,43.73
2023-02-23T18:13:48.265Z,45.00
2023-02-23T18:16:16.873Z,42.53
2023-02-23T18:18:46.946Z,38.73
2023-02-23T18:21:17.562Z,40.03
2023-02-23T18:23:45.962Z,42.40
2023-02-23T18:26:15.041Z,30.93
2023-02-23T18:28:44.548Z,30.77
2023-02-23T18:31:14.394Z,30.07
2023-02-23T18:33:42.741Z,25.67
2023-02-23T18:36:20.213Z,27.33
2023-02-23T18:38:48.735Z,22.50
2023-02-23T18:41:17.420Z,24.17
2023-02-23T18:43:45.636Z,13.93
2023-02-23T18:46:14.673Z,17.17
2023-02-23T18:48:43.129Z,16.50
2023-02-23T18:51:14.258Z,18.93
2023-02-23T18:53:44.465Z,16.00
2023-02-23T18:56:13.658Z,19.27
2023-02-23T18:58:42.892Z,23.17
2023-02-23T19:01:18.105Z,23.10
2023-02-23T19:03:46.678Z,23.27
2023-02-23T19:06:15.990Z,22.63
2023-02-23T19:08:46.244Z,16.67
2023-02-23T19:11:14.648Z,18.87
2023-02-23T19:13:42.988Z,19.00
2023-02-23T19:16:11.265Z,16.50
2023-02-23T19:18:39.541Z,21.30
2023-02-23T19:21:08.311Z,17.07
2023-02-23T19:23:37.460Z,17.50
2023-02-23T19:26:07.710Z,18.10
2023-02-23T19:28:36.132Z,15.30
2023-02-23T19:31:05.735Z,15.70
2023-02-23T19:33:34.593Z,15.30
2023-02-23T19:36:06.003Z,20.13
2023-02-23T19:38:34.257Z,17.67
2023-02-23T19:41:02.488Z,20.57
2023-02-23T19:43:32.113Z,20.17
2023-02-23T19:46:04.087Z,21.27
2023-02-23T19:48:32.380Z,20.93
2023-02-23T19:51:00.661Z,22.47
2023-02-23T19:53:29.057Z,20.20
2023-02-23T19:56:01.533Z,16.40
2023-02-23T19:58:30.001Z,23.00
2023-02-23T20:01:04.722Z,22.53
2023-02-23T20:03:32.993Z,21.70
2023-02-23T20:06:01.419Z,19.93
2023-02-23T20:08:29.677Z,29.97
2023-02-23T20:10:57.975Z,23.53
2023-02-23T20:13:26.207Z,19.20
2023-02-23T20:16:02.727Z,24.43
2023-02-23T20:18:33.369Z,27.53
2023-02-23T20:21:01.592Z,25.70
2023-02-23T20:23:29.850Z,30.07
2023-02-23T20:25:58.130Z,30.23
2023-02-23T20:28:26.407Z,19.53
2023-02-23T20:30:54.767Z,26.07
2023-02-23T20:33:24.418Z,28.03
2023-02-23T20:35:52.652Z,22.77
2023-02-23T20:38:20.981Z,21.83
2023-02-23T20:40:50.576Z,23.37
2023-02-23T20:43:18.856Z,22.43
2023-02-23T20:45:47.184Z,22.40
2023-02-23T20:48:15.433Z,22.00
2023-02-23T20:50:45.106Z,25.50
2023-02-23T20:53:13.372Z,27.50
2023-02-23T20:55:41.722Z,21.33
2023-02-23T20:58:09.935Z,21.30
2023-02-23T21:00:38.351Z,22.57
2023-02-23T21:03:06.829Z,21.60
2023-02-23T21:05:38.322Z,26.43
2023-02-23T21:08:09.761Z,23.17
2023-02-23T21:10:38.706Z,22.33
2023-02-23T21:13:07.628Z,22.87
2023-02-23T21:15:35.982Z,27.30
2023-02-23T21:18:04.289Z,24.53
2023-02-23T21:20:32.864Z,29.03
2023-02-23T21:23:01.782Z,40.27
2023-02-23T21:25:31.692Z,34.50
2023-02-23T21:28:01.724Z,41.73
2023-02-23T21:30:30.287Z,45.83
2023-02-23T21:33:00.120Z,27.60
2023-02-23T21:35:28.549Z,32.43
2023-02-23T21:37:57.084Z,35.37
2023-02-23T21:40:25.458Z,26.97
2023-02-23T21:42:55.076Z,25.03
2023-02-23T21:45:23.406Z,22.27
2023-02-23T21:47:51.680Z,29.30
2023-02-23T21:50:20.993Z,22.70
2023-02-23T21:52:54.016Z,26.20
2023-02-23T21:55:22.732Z,30.33
2023-02-23T21:57:51.725Z,26.43
2023-02-23T22:00:22.939Z,23.50
2023-02-23T22:02:51.954Z,25.10
2023-02-23T22:05:20.587Z,20.93
2023-02-23T22:07:50.149Z,24.00
2023-02-23T22:10:18.950Z,32.50
2023-02-23T22:12:47.345Z,20.83
2023-02-23T22:15:16.748Z,23.87
2023-02-23T22:17:46.351Z,19.50
2023-02-23T22:20:20.008Z,18.73
2023-02-23T22:22:50.275Z,19.27
2023-02-23T22:25:19.125Z,17.73
2023-02-23T22:27:47.385Z,21.87
2023-02-23T22:30:16.169Z,14.33
2023-02-23T22:32:45.965Z,20.77
2023-02-23T22:35:14.303Z,21.33
2023-02-23T22:37:42.626Z,22.47
2023-02-23T22:40:14.850Z,20.20
2023-02-23T22:42:45.401Z,21.10
2023-02-23T22:45:14.942Z,17.63
2023-02-23T22:47:43.279Z,16.23
2023-02-23T22:50:13.921Z,22.47
2023-02-23T22:52:43.080Z,17.70
2023-02-23T22:55:13.020Z,19.87
2023-02-23T22:57:41.355Z,17.07
2023-02-23T23:00:11.255Z,16.63
2023-02-23T23:02:39.514Z,16.00
2023-02-23T23:05:08.322Z,15.87
2023-02-23T23:07:37.915Z,17.87
2023-02-23T23:10:09.165Z,16.03
2023-02-23T23:12:37.977Z,20.63
2023-02-23T23:15:14.582Z,16.90
2023-02-23T23:17:48.086Z,26.87
2023-02-23T23:20:17.242Z,19.17
2023-02-23T23:22:46.806Z,21.07
2023-02-23T23:25:15.630Z,18.37
2023-02-23T23:27:46.033Z,24.83
2023-02-23T23:30:15.432Z,23.47
2023-02-23T23:32:43.992Z,16.20
2023-02-23T23:35:13.396Z,20.17
2023-02-23T23:37:41.619Z,23.30
2023-02-23T23:40:14.990Z,23.00
2023-02-23T23:42:45.860Z,21.40
2023-02-23T23:45:16.264Z,25.33
2023-02-23T23:47:44.974Z,18.50
2023-02-23T23:50:13.963Z,22.50
2023-02-23T23:52:44.207Z,14.27
2023-02-23T23:55:15.482Z,21.43
2023-02-23T23:57:44.291Z,25.53
